createdAt,value
2023-02-19T00:01:19.908Z,2.83
2023-02-19T00:03:46.223Z,3.31
2023-02-19T00:06:12.547Z,3.11
2023-02-19T00:08:38.846Z,3.46
2023-02-19T00:11:05.116Z,3.30
2023-02-19T00:13:31.421Z,3.04
2023-02-19T00:15:57.763Z,3.20
2023-02-19T00:18:24.075Z,2.84
2023-02-19T00:20:50.385Z,2.60
2023-02-19T00:23:16.680Z,2.43
2023-02-19T00:25:42.968Z,2.49
2023-02-19T00:28:09.273Z,2.48
2023-02-19T00:30:35.567Z,2.61
2023-02-19T00:33:01.855Z,2.50
2023-02-19T00:35:28.167Z,2.58
2023-02-19T00:37:54.447Z,2.64
2023-02-19T00:40:20.735Z,2.75
2023-02-19T00:42:47.035Z,2.68
2023-02-19T00:45:13.324Z,2.47
2023-02-19T00:47:39.597Z,2.44
2023-02-19T00:50:05.880Z,2.68
2023-02-19T00:52:32.161Z,2.82
2023-02-19T00:54:58.446Z,2.75
2023-02-19T00:57:24.747Z,2.66
2023-02-19T00:59:51.019Z,2.61
2023-02-19T01:02:17.290Z,2.62
2023-02-19T01:04:43.661Z,2.34
2023-02-19T01:07:10.181Z,2.79
2023-02-19T01:09:36.463Z,2.61
2023-02-19T01:12:02.752Z,2.43
2023-02-19T01:14:29.033Z,2.53
2023-02-19T01:16:55.319Z,2.31
2023-02-19T01:19:21.609Z,2.56
2023-02-19T01:21:47.892Z,2.65
2023-02-19T01:24:14.181Z,2.67
2023-02-19T01:26:40.489Z,2.88
2023-02-19T01:29:06.757Z,2.89
2023-02-19T01:31:33.100Z,2.90
2023-02-19T01:33:59.452Z,2.82
2023-02-19T01:36:25.737Z,2.89
2023-02-19T01:38:52.154Z,3.21
2023-02-19T01:41:18.446Z,3.01
2023-02-19T01:43:44.733Z,3.31
2023-02-19T01:46:11.087Z,3.14
2023-02-19T01:48:37.421Z,3.34
2023-02-19T01:51:03.707Z,3.50
2023-02-19T01:53:29.985Z,3.42
2023-02-19T01:55:56.288Z,3.02
2023-02-19T01:58:22.682Z,2.22
2023-02-19T02:00:49.031Z,2.40
2023-02-19T02:03:15.356Z,2.23
2023-02-19T02:05:41.647Z,2.27
2023-02-19T02:08:07.939Z,2.24
2023-02-19T02:10:34.282Z,2.27
2023-02-19T02:13:00.569Z,2.48
2023-02-19T02:15:26.847Z,2.49
2023-02-19T02:17:53.137Z,2.63
2023-02-19T02:20:19.419Z,2.62
2023-02-19T02:22:45.699Z,2.51
2023-02-19T02:25:12.025Z,2.43
2023-02-19T02:27:38.440Z,2.47
2023-02-19T02:30:04.747Z,2.47
2023-02-19T02:32:31.078Z,2.31
2023-02-19T02:34:57.378Z,2.19
2023-02-19T02:37:23.656Z,2.38
2023-02-19T02:39:49.939Z,2.29
2023-02-19T02:42:16.224Z,2.46
2023-02-19T02:44:42.510Z,2.98
2023-02-19T02:47:08.813Z,2.62
2023-02-19T02:49:35.109Z,1.96
2023-02-19T02:52:01.388Z,1.85
2023-02-19T02:54:27.698Z,1.92
2023-02-19T02:56:53.992Z,1.95
2023-02-19T02:59:20.274Z,1.70
2023-02-19T03:01:46.578Z,1.65
2023-02-19T03:04:12.848Z,2.12
2023-02-19T03:06:39.121Z,2.41
2023-02-19T03:09:05.428Z,2.36
2023-02-19T03:11:33.322Z,2.54
2023-02-19T03:13:59.596Z,2.20
2023-02-19T03:16:25.958Z,1.72
2023-02-19T03:18:52.258Z,1.72
2023-02-19T03:21:18.537Z,1.89
2023-02-19T03:23:44.851Z,1.98
2023-02-19T03:26:11.140Z,2.12
2023-02-19T03:28:37.432Z,2.23
2023-02-19T03:31:03.725Z,2.59
2023-02-19T03:33:30.021Z,2.83
2023-02-19T03:35:56.298Z,2.49
2023-02-19T03:38:22.601Z,2.36
2023-02-19T03:40:48.884Z,2.29
2023-02-19T03:43:16.335Z,2.53
2023-02-19T03:45:42.639Z,2.30
2023-02-19T03:48:08.917Z,1.62
2023-02-19T03:50:35.203Z,1.88
2023-02-19T03:53:01.502Z,3.42
2023-02-19T03:55:27.778Z,2.38
2023-02-19T03:57:54.076Z,1.79
2023-02-19T04:00:20.367Z,1.86
2023-02-19T04:02:46.638Z,1.79
2023-02-19T04:05:14.197Z,1.79
2023-02-19T04:07:40.581Z,1.52
2023-02-19T04:10:06.863Z,1.73
2023-02-19T04:12:33.152Z,1.67
2023-02-19T04:15:02.211Z,1.49
2023-02-19T04:17:28.506Z,1.61
2023-02-19T04:19:54.784Z,1.48
2023-02-19T04:22:21.119Z,1.66
2023-02-19T04:24:47.410Z,1.41
2023-02-19T04:27:13.686Z,1.45
2023-02-19T04:29:39.971Z,1.52
2023-02-19T04:32:06.262Z,1.51
2023-02-19T04:34:32.570Z,1.39
2023-02-19T04:36:58.895Z,1.50
2023-02-19T04:39:25.173Z,1.48
2023-02-19T04:41:51.451Z,1.53
2023-02-19T04:44:17.785Z,1.68
2023-02-19T04:46:44.092Z,1.78
2023-02-19T04:49:10.375Z,1.83
2023-02-19T04:51:36.664Z,2.19
2023-02-19T04:54:02.945Z,2.29
2023-02-19T04:56:29.223Z,1.87
2023-02-19T04:58:55.642Z,1.83
2023-02-19T05:01:21.960Z,1.80
2023-02-19T05:03:51.096Z,2.18
2023-02-19T05:06:17.393Z,2.52
2023-02-19T05:08:43.668Z,2.44
2023-02-19T05:11:10.203Z,2.10
2023-02-19T05:13:36.711Z,1.94
2023-02-19T05:16:03.094Z,2.32
2023-02-19T05:18:29.398Z,2.16
2023-02-19T05:20:55.700Z,2.54
2023-02-19T05:23:21.977Z,2.67
2023-02-19T05:25:48.258Z,2.74
2023-02-19T05:28:14.603Z,2.77
2023-02-19T05:30:40.901Z,2.15
2023-02-19T05:33:07.200Z,1.80
2023-02-19T05:35:33.499Z,1.51
2023-02-19T05:37:59.776Z,1.38
2023-02-19T05:40:26.071Z,1.24
2023-02-19T05:42:52.374Z,1.28
2023-02-19T05:45:18.664Z,1.12
2023-02-19T05:47:44.949Z,1.10
2023-02-19T05:50:11.252Z,1.13
2023-02-19T05:52:37.530Z,1.01
2023-02-19T05:55:03.825Z,1.15
2023-02-19T05:57:30.139Z,1.16
2023-02-19T05:59:56.562Z,1.27
2023-02-19T06:02:24.983Z,1.30
2023-02-19T06:04:51.312Z,1.30
2023-02-19T06:07:17.590Z,1.32
2023-02-19T06:09:43.867Z,1.21
2023-02-19T06:12:10.171Z,2.37
2023-02-19T06:14:36.448Z,1.87
2023-02-19T06:17:02.737Z,3.53
2023-02-19T06:19:29.077Z,1.64
2023-02-19T06:21:55.403Z,1.18
2023-02-19T06:24:21.682Z,1.04
2023-02-19T06:26:47.992Z,1.39
2023-02-19T06:29:14.280Z,1.10
2023-02-19T06:31:40.632Z,1.17
2023-02-19T06:34:07.056Z,1.17
2023-02-19T06:36:33.361Z,1.04
2023-02-19T06:38:59.639Z,1.13
2023-02-19T06:41:25.925Z,1.30
2023-02-19T06:43:52.196Z,1.32
2023-02-19T06:46:18.528Z,1.24
2023-02-19T06:48:44.864Z,1.16
2023-02-19T06:51:11.337Z,1.37
2023-02-19T06:53:37.806Z,1.46
2023-02-19T06:56:04.134Z,1.51
2023-02-19T06:58:30.437Z,1.43
2023-02-19T07:00:56.808Z,1.42
2023-02-19T07:03:23.132Z,2.16
2023-02-19T07:05:49.410Z,1.28
2023-02-19T07:08:15.716Z,1.33
2023-02-19T07:10:42.011Z,1.35
2023-02-19T07:13:08.294Z,1.65
2023-02-19T07:15:34.576Z,1.85
2023-02-19T07:18:00.879Z,1.69
2023-02-19T07:20:27.163Z,1.55
2023-02-19T07:22:53.457Z,1.23
2023-02-19T07:25:19.871Z,1.22
2023-02-19T07:27:46.148Z,1.37
2023-02-19T07:30:12.453Z,1.24
2023-02-19T07:32:38.782Z,1.47
2023-02-19T07:35:05.058Z,1.40
2023-02-19T07:37:31.340Z,1.42
2023-02-19T07:39:58.098Z,1.61
2023-02-19T07:42:24.384Z,2.40
2023-02-19T07:44:50.674Z,2.12
2023-02-19T07:47:16.964Z,1.96
2023-02-19T07:49:43.234Z,1.26
2023-02-19T07:52:09.513Z,1.47
2023-02-19T07:54:35.807Z,1.57
2023-02-19T07:57:02.097Z,2.12
2023-02-19T07:59:28.384Z,3.14
2023-02-19T08:01:54.693Z,2.38
2023-02-19T08:04:20.982Z,2.44
2023-02-19T08:06:47.273Z,1.54
2023-02-19T08:09:13.584Z,1.53
2023-02-19T08:11:39.863Z,1.57
2023-02-19T08:14:06.135Z,1.86
2023-02-19T08:16:42.462Z,1.64
2023-02-19T08:19:09.096Z,1.65
2023-02-19T08:21:35.410Z,1.58
2023-02-19T08:24:01.696Z,2.15
2023-02-19T08:26:30.980Z,1.59
2023-02-19T08:28:57.296Z,1.39
2023-02-19T08:31:24.313Z,1.39
2023-02-19T08:33:51.004Z,1.91
2023-02-19T08:36:17.316Z,2.09
2023-02-19T08:38:43.608Z,2.02
2023-02-19T08:41:10.284Z,1.39
2023-02-19T08:43:36.800Z,1.38
2023-02-19T08:46:03.106Z,1.37
2023-02-19T08:48:29.408Z,1.47
2023-02-19T08:50:55.735Z,1.33
2023-02-19T08:53:22.012Z,1.22
2023-02-19T08:55:48.293Z,1.36
2023-02-19T08:58:14.591Z,1.43
2023-02-19T09:00:40.879Z,1.16
2023-02-19T09:03:07.151Z,1.14
2023-02-19T09:05:33.443Z,0.84
2023-02-19T09:07:59.707Z,0.77
2023-02-19T09:10:25.984Z,1.10
2023-02-19T09:12:52.257Z,0.83
2023-02-19T09:15:18.560Z,0.89
2023-02-19T09:17:44.832Z,0.86
2023-02-19T09:20:11.129Z,0.71
2023-02-19T09:22:37.410Z,0.86
2023-02-19T09:25:03.707Z,0.82
2023-02-19T09:27:30.018Z,1.67
2023-02-19T09:29:56.296Z,0.56
2023-02-19T09:32:22.579Z,0.66
2023-02-19T09:34:48.879Z,0.48
2023-02-19T09:37:15.163Z,0.50
2023-02-19T09:39:41.435Z,0.57
2023-02-19T09:42:07.732Z,0.55
2023-02-19T09:44:34.014Z,0.71
2023-02-19T09:47:00.284Z,0.57
2023-02-19T09:49:26.650Z,0.75
2023-02-19T09:51:52.919Z,0.60
2023-02-19T09:54:19.210Z,0.59
2023-02-19T09:56:45.501Z,0.71
2023-02-19T09:59:12.013Z,1.22
2023-02-19T10:01:38.319Z,0.92
2023-02-19T10:04:04.645Z,1.25
2023-02-19T10:06:30.938Z,0.34
2023-02-19T10:08:57.221Z,0.39
2023-02-19T10:11:23.502Z,0.51
2023-02-19T10:13:49.790Z,0.61
2023-02-19T10:16:16.126Z,0.46
2023-02-19T10:18:42.480Z,0.61
2023-02-19T10:21:09.042Z,0.37
2023-02-19T10:23:35.535Z,0.49
2023-02-19T10:26:01.833Z,1.05
2023-02-19T10:28:28.144Z,1.07
2023-02-19T10:30:54.467Z,0.54
2023-02-19T10:33:20.775Z,0.47
2023-02-19T10:35:47.054Z,0.47
2023-02-19T10:38:13.331Z,0.48
2023-02-19T10:40:39.624Z,0.58
2023-02-19T10:43:05.902Z,0.61
2023-02-19T10:45:32.190Z,0.82
2023-02-19T10:47:58.479Z,0.57
2023-02-19T10:50:24.777Z,0.65
2023-02-19T10:52:51.068Z,0.66
2023-02-19T10:55:19.435Z,0.71
2023-02-19T10:57:45.710Z,0.53
2023-02-19T11:00:12.011Z,0.58
2023-02-19T11:02:38.323Z,0.46
2023-02-19T11:05:04.611Z,0.30
2023-02-19T11:07:30.914Z,0.31
2023-02-19T11:09:57.200Z,0.35
2023-02-19T11:12:23.473Z,0.56
2023-02-19T11:14:49.740Z,0.38
2023-02-19T11:17:16.172Z,0.33
2023-02-19T11:19:42.470Z,0.32
2023-02-19T11:22:08.773Z,0.30
2023-02-19T11:24:35.168Z,0.36
2023-02-19T11:27:01.482Z,0.39
2023-02-19T11:29:27.771Z,0.31
2023-02-19T11:31:54.139Z,0.28
2023-02-19T11:34:20.601Z,0.32
2023-02-19T11:36:46.889Z,0.23
2023-02-19T11:39:13.187Z,0.45
2023-02-19T11:41:39.482Z,1.15
2023-02-19T11:44:05.760Z,0.74
2023-02-19T11:46:32.091Z,0.70
2023-02-19T11:48:58.387Z,1.88
2023-02-19T11:51:24.674Z,3.37
2023-02-19T11:53:50.973Z,1.52
2023-02-19T11:56:17.266Z,0.79
2023-02-19T11:58:43.547Z,0.60
2023-02-19T12:01:10.214Z,0.61
2023-02-19T12:03:36.691Z,0.40
2023-02-19T12:06:02.983Z,0.44
2023-02-19T12:08:29.338Z,0.65
2023-02-19T12:10:55.654Z,0.44
2023-02-19T12:13:21.929Z,0.48
2023-02-19T12:15:48.232Z,0.38
2023-02-19T12:18:14.517Z,0.32
2023-02-19T12:20:40.809Z,0.38
2023-02-19T12:23:07.165Z,0.36
2023-02-19T12:25:34.763Z,0.46
2023-02-19T12:28:01.231Z,0.45
2023-02-19T12:30:27.629Z,0.54
2023-02-19T12:32:53.940Z,0.47
2023-02-19T12:35:20.217Z,0.48
2023-02-19T12:37:46.538Z,0.39
2023-02-19T12:40:12.849Z,0.61
2023-02-19T12:42:39.129Z,0.39
2023-02-19T12:45:05.436Z,0.42
2023-02-19T12:47:31.721Z,0.51
2023-02-19T12:49:58.030Z,0.52
2023-02-19T12:52:24.318Z,0.57
2023-02-19T12:54:50.606Z,0.76
2023-02-19T12:57:16.899Z,0.71
2023-02-19T12:59:43.213Z,0.73
2023-02-19T13:02:09.540Z,0.66
2023-02-19T13:04:35.835Z,0.75
2023-02-19T13:07:02.169Z,0.80
2023-02-19T13:09:28.468Z,0.89
2023-02-19T13:11:54.791Z,0.87
2023-02-19T13:14:21.126Z,0.71
2023-02-19T13:16:47.457Z,0.94
2023-02-19T13:19:13.793Z,0.82
2023-02-19T13:21:40.100Z,0.69
2023-02-19T13:24:06.373Z,0.79
2023-02-19T13:26:32.655Z,0.89
2023-02-19T13:28:58.955Z,0.75
2023-02-19T13:31:25.369Z,0.74
2023-02-19T13:33:51.674Z,0.83
2023-02-19T13:36:17.973Z,0.79
2023-02-19T13:38:44.251Z,1.18
2023-02-19T13:41:10.832Z,1.08
2023-02-19T13:43:37.330Z,1.19
2023-02-19T13:46:03.646Z,1.00
2023-02-19T13:48:29.953Z,0.84
2023-02-19T13:50:56.241Z,0.84
2023-02-19T13:53:22.510Z,0.80
2023-02-19T13:55:48.781Z,0.80
2023-02-19T13:58:15.074Z,0.84
2023-02-19T14:00:41.363Z,0.88
2023-02-19T14:03:07.657Z,0.76
2023-02-19T14:05:33.954Z,0.78
2023-02-19T14:08:00.229Z,0.76
2023-02-19T14:10:26.499Z,0.73
2023-02-19T14:12:52.835Z,0.68
2023-02-19T14:15:19.115Z,0.76
2023-02-19T14:17:45.389Z,0.63
2023-02-19T14:20:11.768Z,0.76
2023-02-19T14:22:38.058Z,0.64
2023-02-19T14:25:04.346Z,1.00
2023-02-19T14:27:30.631Z,0.76
2023-02-19T14:29:56.916Z,0.92
2023-02-19T14:32:23.413Z,0.83
2023-02-19T14:34:50.248Z,0.93
2023-02-19T14:37:16.513Z,0.99
2023-02-19T14:39:42.813Z,0.95
2023-02-19T14:42:09.122Z,1.32
2023-02-19T14:44:35.398Z,0.90
2023-02-19T14:47:01.700Z,0.93
2023-02-19T14:49:28.052Z,0.88
2023-02-19T14:51:54.367Z,0.83
2023-02-19T14:54:20.683Z,0.96
2023-02-19T14:56:47.033Z,0.84
2023-02-19T14:59:13.313Z,0.73
2023-02-19T15:01:39.746Z,0.67
2023-02-19T15:04:06.086Z,0.69
2023-02-19T15:06:32.364Z,0.73
2023-02-19T15:08:58.644Z,0.67
2023-02-19T15:11:24.949Z,0.73
2023-02-19T15:13:51.230Z,0.82
2023-02-19T15:16:17.550Z,0.82
2023-02-19T15:18:43.916Z,1.04
2023-02-19T15:21:10.503Z,1.14
2023-02-19T15:23:36.896Z,0.86
2023-02-19T15:26:03.202Z,1.17
2023-02-19T15:28:29.502Z,1.26
2023-02-19T15:30:55.814Z,0.80
2023-02-19T15:33:22.132Z,0.78
2023-02-19T15:35:48.423Z,0.94
2023-02-19T15:38:14.765Z,0.73
2023-02-19T15:40:41.060Z,1.03
2023-02-19T15:43:07.484Z,0.97
2023-02-19T15:45:33.765Z,0.97
2023-02-19T15:48:00.099Z,1.02
2023-02-19T15:50:26.386Z,1.32
2023-02-19T15:52:52.689Z,1.25
2023-02-19T15:55:18.994Z,1.48
2023-02-19T15:57:45.272Z,1.35
2023-02-19T16:00:11.605Z,1.35
2023-02-19T16:02:37.927Z,0.75
2023-02-19T16:05:04.231Z,0.97
2023-02-19T16:07:31.113Z,0.97
2023-02-19T16:09:57.423Z,0.78
2023-02-19T16:12:23.693Z,1.02
2023-02-19T16:14:49.989Z,0.89
2023-02-19T16:17:16.366Z,0.86
2023-02-19T16:19:42.646Z,0.90
2023-02-19T16:22:08.925Z,0.85
2023-02-19T16:24:35.265Z,0.42
2023-02-19T16:27:01.556Z,0.37
2023-02-19T16:29:27.848Z,0.33
2023-02-19T16:31:54.180Z,0.45
2023-02-19T16:34:20.506Z,0.75
2023-02-19T16:36:46.790Z,1.40
2023-02-19T16:39:13.092Z,1.45
2023-02-19T16:41:39.372Z,0.85
2023-02-19T16:44:05.645Z,0.68
2023-02-19T16:46:31.943Z,0.44
2023-02-19T16:48:58.221Z,0.33
2023-02-19T16:51:24.666Z,0.38
2023-02-19T16:53:50.974Z,0.49
2023-02-19T16:56:17.263Z,0.98
2023-02-19T16:58:43.636Z,1.41
2023-02-19T17:01:10.207Z,0.78
2023-02-19T17:03:36.700Z,1.00
2023-02-19T17:06:03.017Z,0.97
2023-02-19T17:08:29.300Z,1.08
2023-02-19T17:10:56.285Z,1.10
2023-02-19T17:13:22.626Z,0.59
2023-02-19T17:15:48.991Z,0.49
2023-02-19T17:18:15.268Z,0.48
2023-02-19T17:20:41.562Z,0.58
2023-02-19T17:23:07.861Z,0.62
2023-02-19T17:25:34.133Z,0.51
2023-02-19T17:28:00.419Z,0.50
2023-02-19T17:30:26.812Z,0.70
2023-02-19T17:32:53.132Z,1.01
2023-02-19T17:35:19.419Z,2.49
2023-02-19T17:37:45.705Z,3.08
2023-02-19T17:40:12.823Z,1.35
2023-02-19T17:42:40.160Z,0.66
2023-02-19T17:45:06.436Z,0.51
2023-02-19T17:47:32.706Z,0.56
2023-02-19T17:49:58.987Z,0.65
2023-02-19T17:52:25.335Z,0.69
2023-02-19T17:54:51.613Z,0.71
2023-02-19T17:57:17.891Z,0.81
2023-02-19T17:59:44.169Z,0.70
2023-02-19T18:02:10.459Z,0.79
2023-02-19T18:04:37.966Z,0.81
2023-02-19T18:07:05.294Z,1.17
2023-02-19T18:09:31.575Z,1.11
2023-02-19T18:11:57.856Z,0.96
2023-02-19T18:14:24.155Z,0.97
2023-02-19T18:16:50.833Z,1.05
2023-02-19T18:19:17.233Z,0.82
2023-02-19T18:21:43.532Z,0.69
2023-02-19T18:24:09.805Z,0.93
2023-02-19T18:26:36.087Z,0.96
2023-02-19T18:29:02.392Z,0.92
2023-02-19T18:31:28.713Z,0.96
2023-02-19T18:33:55.018Z,1.36
2023-02-19T18:36:21.364Z,1.37
2023-02-19T18:38:47.643Z,1.05
2023-02-19T18:41:14.352Z,0.92
2023-02-19T18:43:40.930Z,1.02
2023-02-19T18:46:07.232Z,3.06
2023-02-19T18:48:33.520Z,4.99
2023-02-19T18:50:59.822Z,2.47
2023-02-19T18:53:26.102Z,3.21
2023-02-19T18:55:52.375Z,2.23
2023-02-19T18:58:18.701Z,2.10
2023-02-19T19:00:44.999Z,2.66
2023-02-19T19:03:11.292Z,1.99
2023-02-19T19:05:37.583Z,1.58
2023-02-19T19:08:03.864Z,1.48
2023-02-19T19:10:30.145Z,2.46
2023-02-19T19:12:56.454Z,2.65
2023-02-19T19:15:22.741Z,1.75
2023-02-19T19:17:49.029Z,2.66
2023-02-19T19:20:15.334Z,3.18
2023-02-19T19:22:41.629Z,2.72
2023-02-19T19:25:07.918Z,2.21
2023-02-19T19:27:34.225Z,2.36
2023-02-19T19:30:00.557Z,1.94
2023-02-19T19:32:26.862Z,1.65
2023-02-19T19:34:53.181Z,1.28
2023-02-19T19:37:19.483Z,1.42
2023-02-19T19:39:45.766Z,1.38
2023-02-19T19:42:12.101Z,1.55
2023-02-19T19:44:38.421Z,2.09
2023-02-19T19:47:04.707Z,2.61
2023-02-19T19:49:31.002Z,2.12
2023-02-19T19:51:58.619Z,1.97
2023-02-19T19:54:24.984Z,1.84
2023-02-19T19:56:51.293Z,2.31
2023-02-19T19:59:17.584Z,3.05
2023-02-19T20:01:43.908Z,2.16
2023-02-19T20:04:10.250Z,1.73
2023-02-19T20:06:36.525Z,1.64
2023-02-19T20:09:02.834Z,1.60
2023-02-19T20:11:29.144Z,1.51
2023-02-19T20:13:55.439Z,1.63
2023-02-19T20:16:21.727Z,1.78
2023-02-19T20:18:48.027Z,1.46
2023-02-19T20:21:14.679Z,1.42
2023-02-19T20:23:41.088Z,1.37
2023-02-19T20:26:07.382Z,1.30
2023-02-19T20:28:33.798Z,1.26
2023-02-19T20:31:00.130Z,1.40
2023-02-19T20:33:26.458Z,1.24
2023-02-19T20:35:52.737Z,1.41
2023-02-19T20:38:19.031Z,1.18
2023-02-19T20:40:45.349Z,1.15
2023-02-19T20:43:11.632Z,1.28
2023-02-19T20:45:37.916Z,1.59
2023-02-19T20:48:04.263Z,1.98
2023-02-19T20:50:30.578Z,2.50
2023-02-19T20:52:56.861Z,1.59
2023-02-19T20:55:25.997Z,1.43
2023-02-19T20:57:52.299Z,1.28
2023-02-19T21:00:18.583Z,1.55
2023-02-19T21:02:44.932Z,2.17
2023-02-19T21:05:11.278Z,1.87
2023-02-19T21:07:37.561Z,1.58
2023-02-19T21:10:03.875Z,1.50
2023-02-19T21:12:30.168Z,1.42
2023-02-19T21:14:56.440Z,1.15
2023-02-19T21:17:22.735Z,1.14
2023-02-19T21:19:50.281Z,1.99
2023-02-19T21:22:16.622Z,4.39
2023-02-19T21:24:42.939Z,2.67
2023-02-19T21:27:09.221Z,1.69
2023-02-19T21:29:35.519Z,1.55
2023-02-19T21:32:01.944Z,1.49
2023-02-19T21:34:28.353Z,1.48
2023-02-19T21:36:54.638Z,1.34
2023-02-19T21:39:20.943Z,1.44
2023-02-19T21:41:47.220Z,1.50
2023-02-19T21:44:13.497Z,1.38
2023-02-19T21:46:39.800Z,1.51
2023-02-19T21:49:06.081Z,1.39
2023-02-19T21:51:32.353Z,1.57
2023-02-19T21:53:59.455Z,1.77
2023-02-19T21:56:25.739Z,1.59
2023-02-19T21:58:53.104Z,1.53
2023-02-19T22:01:19.382Z,1.40
2023-02-19T22:03:45.669Z,1.32
2023-02-19T22:06:12.328Z,1.65
2023-02-19T22:08:38.841Z,1.80
2023-02-19T22:11:05.123Z,2.31
2023-02-19T22:13:31.407Z,1.86
2023-02-19T22:15:57.719Z,1.92
2023-02-19T22:18:23.998Z,1.80
2023-02-19T22:20:50.276Z,1.79
2023-02-19T22:23:16.585Z,1.71
2023-02-19T22:25:42.866Z,1.96
2023-02-19T22:28:09.149Z,1.77
2023-02-19T22:30:35.474Z,1.68
2023-02-19T22:33:01.810Z,1.81
2023-02-19T22:35:28.085Z,1.59
2023-02-19T22:37:54.385Z,1.74
2023-02-19T22:40:20.652Z,1.60
2023-02-19T22:42:46.929Z,1.36
2023-02-19T22:45:13.226Z,1.55
2023-02-19T22:47:39.517Z,1.58
2023-02-19T22:50:05.815Z,1.52
2023-02-19T22:52:32.104Z,1.45
2023-02-19T22:54:58.385Z,1.45
2023-02-19T22:57:24.801Z,1.36
2023-02-19T22:59:51.141Z,1.50
2023-02-19T23:02:17.439Z,1.59
2023-02-19T23:04:43.723Z,1.48
2023-02-19T23:07:10.094Z,1.52
2023-02-19T23:09:36.436Z,1.75
2023-02-19T23:12:02.730Z,1.64
2023-02-19T23:14:29.052Z,1.62
2023-02-19T23:16:55.410Z,1.56
2023-02-19T23:19:21.740Z,1.61
2023-02-19T23:21:48.422Z,1.65
2023-02-19T23:24:14.702Z,1.53
2023-02-19T23:26:40.977Z,1.67
2023-02-19T23:29:07.268Z,1.71
2023-02-19T23:31:33.593Z,1.71
2023-02-19T23:33:59.911Z,1.78
2023-02-19T23:36:26.207Z,1.86
2023-02-19T23:38:52.490Z,1.91
2023-02-19T23:41:18.863Z,1.89
2023-02-19T23:43:45.151Z,2.04
2023-02-19T23:46:11.804Z,2.08
2023-02-19T23:48:38.441Z,2.17
2023-02-19T23:51:04.742Z,1.93
2023-02-19T23:53:31.036Z,2.15
2023-02-19T23:55:57.317Z,1.98
2023-02-19T23:58:23.612Z,1.95
